Time;durP1;ratioP1;P1;durP2;ratioP2;P2;SDS_P1;SDS_P2;PMS_P1;PMS_P2;Temp;Humidity;BMP_temperature;BMP_pressure;BME280_temperature;BME280_humidity;BME280_pressure;Samples;Min_cycle;Max_cycle;Signal;HPM_P1;HPM_P2
2021/01/06 00:02:01;;;;;;;43.63;27.45;;;153.90;2073.60;;;;;;5094542;28;20499;-76
2021/01/06 00:04:27;;;;;;;47.95;29.27;;;153.90;2073.60;;;;;;5094834;28;20035;-71
2021/01/06 00:06:53;;;;;;;44.25;27.52;;;153.90;2073.60;;;;;;5094830;28;20469;-72
2021/01/06 00:09:18;;;;;;;43.97;27.70;;;154.00;2099.20;;;;;;5094202;28;20051;-71
2021/01/06 00:11:44;;;;;;;48.65;28.77;;;154.00;2073.60;;;;;;5094310;28;20351;-71
2021/01/06 00:14:13;;;;;;;44.83;27.25;;;153.90;2073.60;;;;;;5093749;28;20043;-71
2021/01/06 00:16:39;;;;;;;45.85;28.35;;;153.90;2073.60;;;;;;5094395;28;20025;-75
2021/01/06 00:19:06;;;;;;;45.92;28.15;;;153.90;2073.60;;;;;;5094404;28;20024;-75
2021/01/06 00:21:32;;;;;;;45.75;27.48;;;153.90;2073.60;;;;;;5094984;28;20024;-73
2021/01/06 00:24:01;;;;;;;47.75;28.33;;;153.90;2073.60;;;;;;5094501;28;20024;-73
2021/01/06 00:26:31;;;;;;;47.00;27.88;;;153.90;2073.60;;;;;;5094173;28;20024;-74
2021/01/06 00:28:56;;;;;;;49.58;29.38;;;153.90;2073.60;;;;;;5094132;28;20035;-73
2021/01/06 00:31:22;;;;;;;46.40;26.92;;;153.90;2073.60;;;;;;5094300;28;20024;-71
2021/01/06 00:33:48;;;;;;;44.45;26.52;;;153.90;2073.60;;;;;;5094184;28;20497;-72
2021/01/06 00:36:18;;;;;;;42.65;25.27;;;153.90;2073.60;;;;;;5094172;28;20039;-72
2021/01/06 00:38:44;;;;;;;40.40;24.90;;;153.80;2073.60;;;;;;5093786;28;20023;-72
2021/01/06 00:41:10;;;;;;;41.28;24.92;;;153.80;2048.00;;;;;;5094311;28;20028;-71
2021/01/06 00:43:36;;;;;;;39.03;24.38;;;153.80;2073.60;;;;;;5094058;28;20043;-71
2021/01/06 00:46:02;;;;;;;44.20;25.17;;;153.80;2048.00;;;;;;5094504;28;20070;-75
2021/01/06 00:48:27;;;;;;;37.78;23.65;;;153.80;2073.60;;;;;;5093778;28;20027;-73
2021/01/06 00:50:53;;;;;;;37.53;23.80;;;153.70;2073.60;;;;;;5094404;28;20031;-75
2021/01/06 00:53:25;;;;;;;37.20;23.73;;;153.70;2048.00;;;;;;5093715;28;20035;-73
2021/01/06 00:55:54;;;;;;;38.08;24.25;;;153.70;2073.60;;;;;;5093881;28;20028;-75
2021/01/06 00:58:21;;;;;;;41.13;24.60;;;153.70;2048.00;;;;;;5093602;28;20031;-75
2021/01/06 01:00:47;;;;;;;39.28;24.73;;;153.70;2048.00;;;;;;5093994;28;20016;-73
2021/01/06 01:03:13;;;;;;;37.90;23.45;;;153.70;2048.00;;;;;;5093268;28;20378;-75
2021/01/06 01:05:39;;;;;;;37.97;23.33;;;153.70;2073.60;;;;;;5093691;28;20497;-73
2021/01/06 01:08:07;;;;;;;35.22;22.75;;;153.70;2073.60;;;;;;5093623;28;20028;-72
2021/01/06 01:10:45;;;;;;;36.90;23.27;;;153.70;2073.60;;;;;;5093861;28;20020;-73
2021/01/06 01:13:15;;;;;;;37.38;22.83;;;153.70;2073.60;;;;;;5075476;28;20036;-71
2021/01/06 01:15:41;;;;;;;33.90;22.00;;;153.70;2073.60;;;;;;5093586;28;20393;-71
2021/01/06 01:18:11;;;;;;;35.25;21.45;;;153.70;2073.60;;;;;;5093710;28;20107;-71
2021/01/06 01:20:46;;;;;;;32.88;21.33;;;153.80;2073.60;;;;;;5093716;28;20102;-73
2021/01/06 01:23:13;;;;;;;37.78;20.25;;;153.80;2073.60;;;;;;5093769;28;20020;-73
2021/01/06 01:25:39;;;;;;;32.60;20.30;;;153.80;2073.60;;;;;;5095699;28;20103;-74
2021/01/06 01:28:05;;;;;;;30.75;20.38;;;153.90;2099.20;;;;;;5097795;28;20170;-71
2021/01/06 01:30:31;;;;;;;34.72;20.80;;;153.90;2099.20;;;;;;5097650;28;20465;-74
2021/01/06 01:32:57;;;;;;;31.40;20.08;;;153.90;2099.20;;;;;;5097603;28;20099;-71
2021/01/06 01:35:27;;;;;;;27.83;19.25;;;154.00;2099.20;;;;;;5097751;28;20107;-71
2021/01/06 01:37:53;;;;;;;35.13;21.17;;;154.10;2099.20;;;;;;5097370;28;20023;-74
2021/01/06 01:40:29;;;;;;;32.70;20.60;;;154.10;2099.20;;;;;;5097354;28;20115;-74
2021/01/06 01:42:58;;;;;;;32.33;20.00;;;154.20;2099.20;;;;;;5097487;28;20115;-71
2021/01/06 01:45:26;;;;;;;33.03;20.08;;;154.20;2099.20;;;;;;5097549;28;20017;-73
2021/01/06 01:48:00;;;;;;;32.25;19.95;;;154.30;2099.20;;;;;;5097270;28;20055;-73
2021/01/06 01:50:26;;;;;;;30.38;20.08;;;154.30;2099.20;;;;;;5097429;28;20023;-72
2021/01/06 01:53:00;;;;;;;34.30;20.60;;;154.30;2099.20;;;;;;5097353;28;20408;-74
2021/01/06 01:55:27;;;;;;;32.13;19.05;;;154.30;2073.60;;;;;;5097179;28;20024;-73
2021/01/06 01:58:01;;;;;;;30.52;18.90;;;154.40;2073.60;;;;;;5097298;28;20031;-71
2021/01/06 02:00:31;;;;;;;28.73;18.00;;;154.30;2073.60;;;;;;5096771;28;20027;-74
2021/01/06 02:03:33;;;;;;;29.30;17.60;;;154.30;2073.60;;;;;;5078716;28;20284;-71
2021/01/06 02:06:06;;;;;;;28.98;18.27;;;154.30;2073.60;;;;;;5014950;28;20105;-74
2021/01/06 02:08:36;;;;;;;29.02;17.55;;;154.30;2073.60;;;;;;5014719;28;20030;-75
2021/01/06 02:11:10;;;;;;;37.42;19.10;;;154.40;2073.60;;;;;;5014981;28;20416;-71
2021/01/06 02:13:50;;;;;;;27.23;17.33;;;154.40;2073.60;;;;;;4997956;28;20045;-73
2021/01/06 02:16:51;;;;;;;26.50;17.13;;;154.40;2073.60;;;;;;5014678;28;20124;-71
2021/01/06 02:19:24;;;;;;;28.98;16.77;;;154.40;2073.60;;;;;;5014912;28;20415;-74
2021/01/06 02:21:50;;;;;;;24.10;16.55;;;154.40;2073.60;;;;;;5014785;28;20030;-72
2021/01/06 02:24:16;;;;;;;27.88;16.95;;;154.40;2073.60;;;;;;5014489;28;20022;-71
2021/01/06 02:26:42;;;;;;;25.13;15.90;;;154.40;2073.60;;;;;;5014474;28;20032;-71
2021/01/06 02:29:08;;;;;;;26.52;16.27;;;154.50;2073.60;;;;;;5014567;28;20026;-72
2021/01/06 02:31:34;;;;;;;27.17;15.77;;;154.40;2073.60;;;;;;5014521;28;20026;-72
2021/01/06 02:34:01;;;;;;;26.17;16.20;;;154.50;2073.60;;;;;;5014437;28;20030;-72
2021/01/06 02:36:27;;;;;;;25.85;16.48;;;154.40;2073.60;;;;;;5013688;28;20044;-72
2021/01/06 02:38:53;;;;;;;23.98;14.80;;;154.50;2073.60;;;;;;5014421;28;20037;-74
2021/01/06 02:41:19;;;;;;;24.20;15.13;;;154.50;2073.60;;;;;;5024042;28;20108;-71
2021/01/06 02:43:47;;;;;;;24.10;15.63;;;154.50;2048.00;;;;;;5096124;28;20035;-75
2021/01/06 02:46:14;;;;;;;25.85;15.98;;;154.50;2048.00;;;;;;5096375;28;20462;-71
2021/01/06 02:48:40;;;;;;;25.95;16.55;;;154.50;2073.60;;;;;;5096468;28;20024;-71
2021/01/06 02:51:15;;;;;;;24.25;14.95;;;154.50;2073.60;;;;;;5096305;28;20031;-72
2021/01/06 02:53:53;;;;;;;28.80;15.23;;;154.50;2048.00;;;;;;5095728;28;20505;-75
2021/01/06 02:56:20;;;;;;;24.75;15.68;;;154.50;2048.00;;;;;;5096108;28;20115;-72
2021/01/06 02:58:49;;;;;;;23.35;14.63;;;154.50;2048.00;;;;;;5095888;28;20024;-74
2021/01/06 03:01:18;;;;;;;21.45;14.93;;;154.50;2048.00;;;;;;5096036;28;20104;-74
2021/01/06 03:03:45;;;;;;;27.27;16.35;;;154.50;2073.60;;;;;;5095935;28;20024;-73
2021/01/06 03:06:23;;;;;;;24.23;15.65;;;154.50;2073.60;;;;;;5095744;28;20470;-74
2021/01/06 03:08:49;;;;;;;23.05;14.93;;;154.50;2073.60;;;;;;5096007;28;20382;-70
2021/01/06 03:11:14;;;;;;;25.67;15.52;;;154.50;2048.00;;;;;;5095793;28;20031;-72
2021/01/06 03:13:40;;;;;;;24.63;15.65;;;154.50;2073.60;;;;;;5095661;28;20028;-71
2021/01/06 03:16:06;;;;;;;21.77;14.13;;;154.50;2048.00;;;;;;5095783;28;20513;-71
2021/01/06 03:18:32;;;;;;;25.00;15.35;;;154.50;2073.60;;;;;;5095154;28;20466;-72
2021/01/06 03:21:08;;;;;;;21.52;14.13;;;179.20;2048.00;;;;;;5095862;28;20027;-72
2021/01/06 03:23:41;;;;;;;22.85;13.50;;;154.50;2048.00;;;;;;5095486;28;20027;-71
2021/01/06 03:26:18;;;;;;;21.20;14.50;;;154.50;2048.00;;;;;;5077509;28;20020;-72
2021/01/06 03:28:46;;;;;;;23.10;13.80;;;154.50;2048.00;;;;;;5095419;28;20032;-71
2021/01/06 03:31:33;;;;;;;20.80;13.10;;;179.20;2073.60;;;;;;5095726;28;20106;-72
2021/01/06 03:34:07;;;;;;;21.77;14.25;;;179.20;2073.60;;;;;;5095173;28;20036;-71
2021/01/06 03:36:41;;;;;;;20.40;13.80;;;179.20;2073.60;;;;;;5095310;28;20027;-72
2021/01/06 03:39:16;;;;;;;19.88;13.65;;;179.20;2073.60;;;;;;5095315;28;20028;-74
2021/01/06 03:41:42;;;;;;;24.23;14.40;;;179.20;2073.60;;;;;;5095016;28;20424;-73
2021/01/06 03:44:11;;;;;;;21.20;13.32;;;179.20;2073.60;;;;;;5095134;28;20032;-72
2021/01/06 03:46:55;;;;;;;22.05;13.95;;;179.30;2073.60;;;;;;5095203;28;20053;-72
2021/01/06 03:49:51;;;;;;;21.45;13.50;;;179.40;2073.60;;;;;;5095155;28;20073;-73
2021/01/06 03:52:23;;;;;;;20.75;13.40;;;179.40;2073.60;;;;;;5013035;28;20038;-73
2021/01/06 03:55:22;;;;;;;20.58;13.93;;;179.40;2073.60;;;;;;4996670;28;20038;-74
2021/01/06 03:57:51;;;;;;;21.27;13.25;;;179.40;2073.60;;;;;;5012953;28;20030;-71
2021/01/06 04:00:50;;;;;;;21.83;13.10;;;179.40;2073.60;;;;;;5012877;28;20411;-70
2021/01/06 04:03:28;;;;;;;23.17;13.60;;;179.50;2073.60;;;;;;5012467;28;20566;-69
2021/01/06 04:05:56;;;;;;;20.70;13.40;;;179.50;2073.60;;;;;;5012814;28;20017;-71
2021/01/06 04:08:36;;;;;;;20.75;13.38;;;179.50;2073.60;;;;;;5012546;28;20022;-72
2021/01/06 04:11:04;;;;;;;22.40;13.63;;;179.50;2073.60;;;;;;5012862;28;20037;-70
2021/01/06 04:13:30;;;;;;;20.75;13.15;;;179.50;2073.60;;;;;;5012130;28;20034;-73
2021/01/06 04:15:56;;;;;;;24.17;14.73;;;179.50;2073.60;;;;;;5012635;28;20061;-70
2021/01/06 04:18:23;;;;;;;21.92;14.35;;;179.50;2073.60;;;;;;5012461;28;20040;-70
2021/01/06 04:20:48;;;;;;;25.70;14.32;;;179.50;2073.60;;;;;;5012524;28;20025;-70
2021/01/06 04:23:16;;;;;;;19.65;12.32;;;179.50;2073.60;;;;;;5012480;28;20140;-69
2021/01/06 04:25:47;;;;;;;23.40;14.00;;;179.40;2048.00;;;;;;5012625;28;20111;-70
2021/01/06 04:28:22;;;;;;;22.40;14.05;;;179.50;2048.00;;;;;;5014699;28;20061;-69
2021/01/06 04:30:56;;;;;;;21.25;13.88;;;179.50;2073.60;;;;;;5094319;28;20028;-75
2021/01/06 04:33:32;;;;;;;20.15;12.88;;;179.50;2073.60;;;;;;5094349;28;20050;-69
2021/01/06 04:35:59;;;;;;;20.58;13.43;;;179.50;2048.00;;;;;;5094283;28;20039;-69
2021/01/06 04:38:29;;;;;;;20.80;12.35;;;179.50;2073.60;;;;;;5094317;28;20028;-80
2021/01/06 04:40:59;;;;;;;23.10;13.20;;;179.50;2099.20;;;;;;5094132;28;20458;-76
2021/01/06 04:43:37;;;;;;;23.00;13.35;;;179.50;2099.20;;;;;;5094012;28;20019;-69
2021/01/06 04:46:23;;;;;;;20.48;12.10;;;179.50;2073.60;;;;;;5094091;28;20047;-74
2021/01/06 04:48:51;;;;;;;20.58;13.10;;;179.60;2073.60;;;;;;5093650;28;20474;-69
2021/01/06 04:51:26;;;;;;;17.63;11.77;;;179.50;2048.00;;;;;;5093900;28;20484;-76
2021/01/06 04:54:49;;;;;;;17.25;11.75;;;179.60;2073.60;;;;;;5093928;28;20473;-69
2021/01/06 04:57:32;;;;;;;20.83;11.93;;;179.50;2048.00;;;;;;5011980;28;20032;-68
2021/01/06 05:00:15;;;;;;;16.98;11.88;;;179.50;2048.00;;;;;;5011615;28;20026;-76
2021/01/06 05:02:59;;;;;;;17.45;11.50;;;179.50;2073.60;;;;;;5011781;28;20053;-69
2021/01/06 05:05:34;;;;;;;17.13;10.98;;;179.50;2048.00;;;;;;5012012;28;20065;-77
2021/01/06 05:08:07;;;;;;;18.27;10.82;;;179.50;2048.00;;;;;;5011908;28;20025;-69
2021/01/06 05:11:00;;;;;;;18.50;11.73;;;179.50;2073.60;;;;;;5011816;28;20032;-69
2021/01/06 05:13:39;;;;;;;20.67;11.43;;;179.50;2048.00;;;;;;5011440;28;20112;-69
2021/01/06 05:16:13;;;;;;;17.77;11.45;;;179.50;2048.00;;;;;;5011829;28;20460;-75
2021/01/06 05:18:40;;;;;;;15.63;10.20;;;179.60;2048.00;;;;;;5011844;28;20049;-76
2021/01/06 05:21:16;;;;;;;18.15;10.95;;;179.60;2073.60;;;;;;5011870;28;20036;-77
2021/01/06 05:23:43;;;;;;;17.15;10.68;;;179.60;2073.60;;;;;;5011753;28;20038;-75
2021/01/06 05:26:10;;;;;;;17.40;10.77;;;179.60;2073.60;;;;;;5011526;28;20539;-75
2021/01/06 05:28:35;;;;;;;16.42;9.90;;;179.70;2073.60;;;;;;5011558;28;20033;-74
2021/01/06 05:31:01;;;;;;;16.02;10.68;;;179.70;2073.60;;;;;;5058604;28;20412;-73
2021/01/06 05:33:39;;;;;;;18.25;10.15;;;179.70;2073.60;;;;;;5093594;28;20032;-68
2021/01/06 05:36:05;;;;;;;15.02;10.43;;;179.70;2073.60;;;;;;5093631;28;20024;-69
2021/01/06 05:38:31;;;;;;;16.92;10.77;;;179.80;2073.60;;;;;;5093434;28;20066;-70
2021/01/06 05:40:57;;;;;;;18.08;10.05;;;179.80;2073.60;;;;;;5093361;28;20024;-73
2021/01/06 05:43:28;;;;;;;16.65;9.90;;;179.80;2073.60;;;;;;5093429;28;20016;-76
2021/01/06 05:46:02;;;;;;;19.45;9.70;;;179.80;2073.60;;;;;;5093375;28;20012;-75
2021/01/06 05:48:55;;;;;;;22.83;12.02;;;179.80;2073.60;;;;;;5093561;28;20062;-69
2021/01/06 05:51:30;;;;;;;23.35;12.18;;;179.90;2073.60;;;;;;5093557;28;20099;-70
2021/01/06 05:54:05;;;;;;;;;;;179.90;2073.60;;;;;;5094188;28;20028;-76
2021/01/06 05:56:55;;;;;;;;;;;179.90;2073.60;;;;;;5093622;28;19904;-75
2021/01/06 05:59:30;;;;;;;16.95;11.10;;;179.90;2073.60;;;;;;5093458;28;19904;-75
2021/01/06 06:02:22;;;;;;;16.27;9.98;;;179.90;2048.00;;;;;;5093136;28;20043;-69
2021/01/06 06:05:32;;;;;;;23.13;15.65;;;179.90;2048.00;;;;;;5093300;28;20369;-75
2021/01/06 06:08:35;;;;;;;25.65;15.90;;;179.90;2048.00;;;;;;5011130;28;20034;-75
2021/01/06 06:11:19;;;;;;;19.17;12.40;;;179.90;2048.00;;;;;;4995125;28;20495;-74
2021/01/06 06:13:56;;;;;;;23.75;11.60;;;180.00;2048.00;;;;;;5014782;28;20046;-74
2021/01/06 06:16:43;;;;;;;16.88;10.13;;;180.00;2048.00;;;;;;5015050;28;20041;-73
2021/01/06 06:19:27;;;;;;;16.42;9.32;;;180.00;2048.00;;;;;;5014718;28;20025;-74
2021/01/06 06:22:09;;;;;;;13.32;7.90;;;179.90;2048.00;;;;;;5014729;28;20100;-75
2021/01/06 06:24:54;;;;;;;12.40;8.40;;;180.00;2048.00;;;;;;5014192;28;20038;-75
2021/01/06 06:27:20;;;;;;;14.82;9.07;;;180.00;2048.00;;;;;;5014635;28;20064;-75
2021/01/06 06:29:56;;;;;;;15.75;8.95;;;180.00;2048.00;;;;;;5014365;28;20097;-76
2021/01/06 06:32:32;;;;;;;16.02;10.25;;;180.00;2048.00;;;;;;5014508;28;20400;-73
2021/01/06 06:35:19;;;;;;;15.43;10.68;;;180.10;2048.00;;;;;;5014433;28;20112;-74
2021/01/06 06:37:55;;;;;;;14.05;9.43;;;180.10;2048.00;;;;;;5014534;28;20072;-68
2021/01/06 06:40:22;;;;;;;13.45;9.60;;;180.10;2048.00;;;;;;5014220;28;20483;-68
2021/01/06 06:43:02;;;;;;;13.27;9.18;;;180.10;2048.00;;;;;;5014149;28;20523;-68
2021/01/06 06:45:40;;;;;;;17.35;9.93;;;204.80;2048.00;;;;;;5089518;28;20051;-69
2021/01/06 06:48:36;;;;;;;15.38;10.20;;;204.80;2048.00;;;;;;5096307;28;20042;-72
2021/01/06 06:51:37;;;;;;;17.92;11.10;;;204.80;2048.00;;;;;;5096082;28;20020;-72
2021/01/06 06:54:10;;;;;;;16.20;10.25;;;204.80;2048.00;;;;;;5091968;28;20115;-73
2021/01/06 06:57:01;;;;;;;20.13;11.93;;;204.80;2048.00;;;;;;5096116;28;20028;-70
2021/01/06 06:59:30;;;;;;;22.55;12.65;;;204.80;2048.00;;;;;;5095323;28;20144;-72
2021/01/06 07:02:02;;;;;;;27.65;13.80;;;204.80;2048.00;;;;;;5095855;28;20062;-69
2021/01/06 07:04:47;;;;;;;25.70;13.45;;;204.80;2048.00;;;;;;5095962;28;20099;-71
2021/01/06 07:07:37;;;;;;;28.73;13.27;;;204.90;2073.60;;;;;;5095823;28;20482;-73
2021/01/06 07:10:33;;;;;;;27.10;13.40;;;205.00;2048.00;;;;;;5013739;28;20046;-70
2021/01/06 07:13:07;;;;;;;24.52;15.57;;;205.00;2073.60;;;;;;5012634;28;20404;-69
2021/01/06 07:15:35;;;;;;;34.42;16.25;;;205.00;2073.60;;;;;;5013564;28;20577;-75
2021/01/06 07:18:29;;;;;;;29.30;11.70;;;205.00;2073.60;;;;;;5013546;28;20065;-71
2021/01/06 07:21:30;;;;;;;27.45;13.30;;;205.30;2176.00;;;;;;5013629;28;20033;-68
2021/01/06 07:23:56;;;;;;;20.38;12.60;;;205.40;2099.20;;;;;;5012623;28;20487;-70
2021/01/06 07:26:24;;;;;;;22.67;13.68;;;205.30;2073.60;;;;;;5013437;28;20022;-68
2021/01/06 07:29:00;;;;;;;22.90;12.65;;;205.30;2073.60;;;;;;5016955;28;20036;-71
2021/01/06 07:31:30;;;;;;;23.13;14.75;;;205.30;2073.60;;;;;;5013348;28;20080;-68
2021/01/06 07:34:00;;;;;;;25.50;14.73;;;205.30;2073.60;;;;;;5013203;28;20045;-70
2021/01/06 07:36:32;;;;;;;25.75;15.23;;;205.30;2073.60;;;;;;5013076;28;20023;-74
2021/01/06 07:38:59;;;;;;;28.45;15.98;;;205.30;2073.60;;;;;;5009717;28;20032;-69
2021/01/06 07:41:26;;;;;;;31.75;16.48;;;205.30;2073.60;;;;;;5012174;28;20030;-69
2021/01/06 07:44:17;;;;;;;41.88;20.60;;;205.30;2073.60;;;;;;5011614;28;20057;-68
2021/01/06 07:46:57;;;;;;;42.22;22.58;;;205.40;2073.60;;;;;;5058580;28;20051;-69
2021/01/06 07:49:47;;;;;;;38.67;21.33;;;205.40;2073.60;;;;;;5094316;28;20044;-69
2021/01/06 07:52:35;;;;;;;49.58;24.45;;;205.40;2048.00;;;;;;5094094;28;20039;-69
2021/01/06 07:55:20;;;;;;;110.18;47.45;;;205.50;2048.00;;;;;;5093882;28;20115;-69
2021/01/06 07:57:54;;;;;;;83.40;36.40;;;205.50;2048.00;;;;;;5093915;28;20028;-69
2021/01/06 08:00:38;;;;;;;100.85;47.50;;;205.50;2048.00;;;;;;5093575;28;20028;-68
2021/01/06 08:03:16;;;;;;;81.18;35.88;;;205.50;2073.60;;;;;;5093476;28;20074;-69
2021/01/06 08:05:42;;;;;;;58.17;29.58;;;205.50;2073.60;;;;;;5093908;28;20024;-69
2021/01/06 08:08:11;;;;;;;98.80;49.17;;;205.50;2073.60;;;;;;5093740;28;20553;-69
2021/01/06 08:10:43;;;;;;;197.98;94.60;;;205.60;2073.60;;;;;;5093587;28;20024;-70
2021/01/06 08:13:17;;;;;;;213.43;102.03;;;205.50;2073.60;;;;;;5093075;28;20036;-68
2021/01/06 08:15:45;;;;;;;225.77;104.80;;;205.60;2073.60;;;;;;5093309;28;20020;-68
2021/01/06 08:18:24;;;;;;;212.38;100.10;;;205.60;2048.00;;;;;;5093254;28;20497;-69
2021/01/06 08:21:05;;;;;;;129.57;60.75;;;205.70;2073.60;;;;;;5093095;28;20028;-68
2021/01/06 08:24:19;;;;;;;81.00;38.47;;;205.70;2022.40;;;;;;5093154;28;20028;-67
2021/01/06 08:26:47;;;;;;;70.35;33.83;;;230.40;2022.40;;;;;;5011134;28;20120;-65
2021/01/06 08:29:27;;;;;;;85.05;42.85;;;230.40;2048.00;;;;;;5011170;28;20034;-67
2021/01/06 08:32:16;;;;;;;69.47;36.40;;;230.50;2073.60;;;;;;5010846;28;20192;-67
2021/01/06 08:34:57;;;;;;;69.05;31.98;;;230.50;2022.40;;;;;;5010514;28;20131;-67
2021/01/06 08:37:29;;;;;;;53.55;27.13;;;230.60;2022.40;;;;;;5011140;28;20561;-67
2021/01/06 08:39:57;;;;;;;45.00;23.05;;;230.60;2022.40;;;;;;5010595;28;20037;-67
2021/01/06 08:42:37;;;;;;;49.75;25.02;;;230.60;2022.40;;;;;;5010861;28;20025;-67
2021/01/06 08:45:05;;;;;;;37.38;21.77;;;230.60;2022.40;;;;;;5010791;28;20026;-67
2021/01/06 08:47:35;;;;;;;55.90;28.30;;;230.50;2048.00;;;;;;5010508;28;20041;-67
2021/01/06 08:50:29;;;;;;;55.17;28.02;;;230.50;2022.40;;;;;;5010659;28;20095;-68
2021/01/06 08:53:01;;;;;;;44.85;23.67;;;230.50;2022.40;;;;;;5004385;28;20041;-67
2021/01/06 08:55:30;;;;;;;41.78;21.83;;;230.50;2022.40;;;;;;5010728;28;20120;-67
2021/01/06 08:58:17;;;;;;;36.95;18.10;;;230.50;2022.40;;;;;;5010810;28;20501;-67
2021/01/06 09:00:56;;;;;;;44.70;23.02;;;230.50;2022.40;;;;;;5009807;28;20052;-66
2021/01/06 09:04:03;;;;;;;56.90;31.83;;;230.50;2048.00;;;;;;5047566;28;20132;-67
2021/01/06 09:06:30;;;;;;;45.78;24.05;;;230.50;2073.60;;;;;;4989692;28;20065;-66
2021/01/06 09:09:23;;;;;;;34.55;18.65;;;230.50;2048.00;;;;;;4990169;28;20489;-67
2021/01/06 09:11:54;;;;;;;46.95;22.58;;;230.50;2048.00;;;;;;4989984;28;20022;-66
2021/01/06 09:14:38;;;;;;;33.95;18.45;;;230.50;2048.00;;;;;;4990297;28;20185;-66
2021/01/06 09:17:18;;;;;;;43.65;22.33;;;230.50;2048.00;;;;;;4990765;28;20033;-66
2021/01/06 09:20:07;;;;;;;35.38;17.73;;;230.40;2048.00;;;;;;4990902;28;20046;-67
2021/01/06 09:22:34;;;;;;;30.58;17.58;;;230.50;2073.60;;;;;;4990816;28;20031;-67
2021/01/06 09:25:00;;;;;;;34.58;18.88;;;230.60;2073.60;;;;;;4990991;28;20029;-72
2021/01/06 09:27:44;;;;;;;50.13;29.17;;;230.60;2073.60;;;;;;4991049;28;20396;-73
2021/01/06 09:30:31;;;;;;;51.97;29.45;;;230.70;2073.60;;;;;;4990476;28;20438;-73
2021/01/06 09:33:01;;;;;;;50.05;31.20;;;230.70;2073.60;;;;;;4990745;28;20031;-73
2021/01/06 09:35:33;;;;;;;37.75;23.35;;;230.70;2073.60;;;;;;4990838;28;20034;-73
2021/01/06 09:38:05;;;;;;;56.88;29.17;;;230.70;2073.60;;;;;;4990750;28;20095;-74
2021/01/06 09:40:33;;;;;;;105.80;55.78;;;230.70;2073.60;;;;;;5033259;28;20041;-70
2021/01/06 09:43:07;;;;;;;193.02;123.85;;;230.70;2073.60;;;;;;5072359;28;20035;-73
2021/01/06 09:45:33;;;;;;;197.70;128.03;;;230.80;2073.60;;;;;;5072323;28;20020;-70
2021/01/06 09:48:03;;;;;;;158.10;100.05;;;230.80;2073.60;;;;;;5075858;28;20367;-70
2021/01/06 09:50:49;;;;;;;89.32;58.20;;;230.80;2073.60;;;;;;5076091;28;20020;-73
2021/01/06 09:53:21;;;;;;;72.28;42.60;;;230.80;2073.60;;;;;;5075511;28;20115;-73
2021/01/06 09:55:49;;;;;;;74.22;39.85;;;230.80;2073.60;;;;;;5074459;28;20033;-74
2021/01/06 09:58:37;;;;;;;64.60;31.85;;;230.80;2073.60;;;;;;5074720;28;20482;-74
2021/01/06 10:01:20;;;;;;;121.07;49.10;;;230.80;2099.20;;;;;;5073631;28;20047;-73
2021/01/06 10:03:49;;;;;;;91.00;39.75;;;230.80;2073.60;;;;;;5054389;28;20120;-74
2021/01/06 10:06:25;;;;;;;123.25;51.15;;;230.80;2073.60;;;;;;5055592;28;20025;-74
2021/01/06 10:09:01;;;;;;;85.57;40.05;;;230.80;2073.60;;;;;;5055364;28;20021;-74
2021/01/06 10:11:46;;;;;;;84.28;40.92;;;230.80;2073.60;;;;;;5055564;28;20478;-73
2021/01/06 10:14:30;;;;;;;129.05;69.00;;;230.80;2099.20;;;;;;5055025;28;20056;-74
2021/01/06 10:17:03;;;;;;;113.60;63.42;;;230.80;2073.60;;;;;;5052169;28;20020;-72
2021/01/06 10:19:55;;;;;;;68.40;40.95;;;230.80;2099.20;;;;;;5054407;28;20021;-72
2021/01/06 10:22:44;;;;;;;63.67;35.53;;;230.90;2099.20;;;;;;5055248;28;20049;-72
2021/01/06 10:25:24;;;;;;;63.70;36.90;;;231.00;2073.60;;;;;;5055034;28;20374;-73
2021/01/06 10:28:04;;;;;;;48.55;29.52;;;231.00;2099.20;;;;;;5055015;28;20028;-71
2021/01/06 10:30:32;;;;;;;48.40;30.15;;;231.00;2073.60;;;;;;5054937;28;20025;-73
2021/01/06 10:33:16;;;;;;;44.65;24.95;;;231.00;2073.60;;;;;;5055137;28;20043;-73
2021/01/06 10:36:04;;;;;;;30.57;16.43;;;231.00;2099.20;;;;;;5055356;28;20378;-73
2021/01/06 10:38:52;;;;;;;21.83;12.35;;;231.00;2099.20;;;;;;5054912;28;20021;-74
2021/01/06 10:41:31;;;;;;;27.33;18.08;;;230.90;2073.60;;;;;;5054989;28;20459;-73
2021/01/06 10:44:21;;;;;;;32.85;22.65;;;230.90;2099.20;;;;;;5053620;28;20466;-74
2021/01/06 10:46:48;;;;;;;86.53;35.40;;;231.00;2073.60;;;;;;5055123;28;20041;-73
2021/01/06 10:49:33;;;;;;;201.63;67.72;;;231.00;2099.20;;;;;;5055050;28;20437;-74
2021/01/06 10:52:08;;;;;;;129.60;52.03;;;231.00;2099.20;;;;;;5054660;28;20032;-73
2021/01/06 10:54:36;;;;;;;84.07;39.63;;;231.00;2099.20;;;;;;5054881;28;20106;-77
2021/01/06 10:57:15;;;;;;;96.65;41.95;;;231.10;2099.20;;;;;;5055039;28;20029;-77
2021/01/06 11:00:19;;;;;;;63.13;29.58;;;231.10;2099.20;;;;;;5054051;28;20027;-76
2021/01/06 11:03:10;;;;;;;41.47;23.80;;;231.10;2073.60;;;;;;5080650;28;20055;-76
2021/01/06 11:05:41;;;;;;;33.30;18.60;;;231.10;2099.20;;;;;;5094805;28;20138;-74
2021/01/06 11:08:26;;;;;;;24.48;15.55;;;231.10;2099.20;;;;;;5094713;28;20028;-76
2021/01/06 11:11:10;;;;;;;32.40;20.50;;;231.20;2073.60;;;;;;5094757;28;20072;-75
2021/01/06 11:13:55;;;;;;;28.27;16.23;;;231.20;2073.60;;;;;;5094597;28;20058;-72
2021/01/06 11:16:22;;;;;;;;;;;231.30;2048.00;;;;;;5095242;28;20077;-75
2021/01/06 11:18:49;;;;;;;26.10;17.48;;;231.30;2099.20;;;;;;5094935;28;19904;-75
2021/01/06 11:21:38;;;;;;;33.72;20.10;;;231.30;2073.60;;;;;;5094132;28;20385;-76
2021/01/06 11:24:30;;;;;;;26.40;16.65;;;231.30;2073.60;;;;;;5094562;28;20027;-74
2021/01/06 11:26:56;;;;;;;24.75;17.17;;;231.30;2073.60;;;;;;5094698;28;20536;-72
2021/01/06 11:29:56;;;;;;;27.27;17.65;;;231.30;2073.60;;;;;;5094071;28;20050;-73
2021/01/06 11:32:31;;;;;;;23.67;14.68;;;231.30;2073.60;;;;;;5094533;28;20020;-75
2021/01/06 11:35:11;;;;;;;25.95;16.10;;;231.30;2073.60;;;;;;5094236;28;20101;-69
2021/01/06 11:37:40;;;;;;;38.40;26.50;;;256.00;2048.00;;;;;;5094133;28;20032;-67
2021/01/06 11:40:26;;;;;;;59.55;41.05;;;256.00;2073.60;;;;;;5076040;28;20027;-74
2021/01/06 11:42:59;;;;;;;42.90;29.13;;;256.00;2073.60;;;;;;4992186;28;20072;-75
2021/01/06 11:45:29;;;;;;;35.72;22.90;;;256.00;2073.60;;;;;;4992021;28;20136;-75
2021/01/06 11:48:05;;;;;;;55.92;31.63;;;256.00;2048.00;;;;;;4992357;28;20031;-69
2021/01/06 11:50:42;;;;;;;53.53;31.90;;;256.20;2124.80;;;;;;4992294;28;20034;-69
2021/01/06 11:53:13;;;;;;;60.47;32.47;;;256.30;2124.80;;;;;;4992219;28;20033;-69
2021/01/06 11:56:21;;;;;;;51.58;30.25;;;256.40;2124.80;;;;;;4992219;28;20182;-68
2021/01/06 11:59:22;;;;;;;45.58;29.08;;;256.50;2099.20;;;;;;4934087;29;20034;-66
2021/01/06 12:02:25;;;;;;;42.40;26.13;;;256.50;2099.20;;;;;;4934173;29;20039;-69
2021/01/06 12:05:06;;;;;;;46.25;23.17;;;256.50;2073.60;;;;;;4934316;29;20038;-69
2021/01/06 12:08:13;;;;;;;39.65;20.70;;;256.50;2048.00;;;;;;4933769;29;20064;-69
2021/01/06 12:10:42;;;;;;;29.77;15.88;;;256.50;2048.00;;;;;;4895223;29;20044;-69
2021/01/06 12:13:24;;;;;;;31.17;19.13;;;256.40;2048.00;;;;;;4895893;29;20112;-69
2021/01/06 12:16:06;;;;;;;43.50;21.80;;;256.40;2124.80;;;;;;4895960;29;20043;-69
2021/01/06 12:18:59;;;;;;;35.80;18.98;;;256.60;2150.40;;;;;;4896226;29;20503;-69
2021/01/06 12:21:36;;;;;;;32.80;19.85;;;256.60;2099.20;;;;;;4952512;29;20043;-69
2021/01/06 12:24:20;;;;;;;32.45;20.52;;;256.60;2099.20;;;;;;4953105;28;20035;-69
2021/01/06 12:27:01;;;;;;;31.60;20.25;;;256.60;2099.20;;;;;;4953096;28;20106;-69
2021/01/06 12:29:46;;;;;;;31.88;18.58;;;256.60;2073.60;;;;;;4952513;28;20125;-69
2021/01/06 12:32:39;;;;;;;31.85;19.02;;;256.60;2099.20;;;;;;4952975;29;20522;-70
2021/01/06 12:35:16;;;;;;;36.83;19.98;;;256.60;2099.20;;;;;;4975334;28;20526;-69
2021/01/06 12:37:44;;;;;;;32.35;18.83;;;256.60;2099.20;;;;;;5029835;28;20083;-69
2021/01/06 12:40:12;;;;;;;29.05;19.35;;;256.60;2073.60;;;;;;5030591;28;20026;-69
2021/01/06 12:42:51;;;;;;;28.50;17.05;;;256.70;2073.60;;;;;;5030597;28;20383;-70